Le Touquet-Côte d'Opale Airport

LFAT · Pas-de-Calais, Hauts-de-France, Francja

Historia METAR LFAT · Le Touquet-Côte d'Opale Airport

Poniżej widzisz METAR-y z ostatnich kilku dni. Wybierz rok, aby przeglądać starsze METAR-y, począwszy od roku 2007.

16 czerwca 2024

Czas Kod Pogoda Temp. Widoczność Sufit Wiatr METAR/SPECI
03:30
M
14 °C 10 km+ 1.200 ft 210° 210° 11 kt METAR LFAT 160130Z AUTO 21011KT 180V240 9999 BKN012/// BKN017/// BKN039/// //////TCU 14/11 Q1004
03:30
M
14 °C 10 km+ 1.200 ft 210° 210° 11 kt METAR LFAT 160130Z AUTO 21011KT 180V240 9999 BKN012/// BKN017/// BKN039/// ///TCU 14/11 Q1004
03:00
M
14 °C 10 km+ 1.600 ft 210° 210° 10 kt METAR LFAT 160100Z AUTO 21010KT 170V250 9999 BKN016/// BKN023/// BKN056/// 14/11 Q1004
02:30
M
14 °C 10 km+ 1.700 ft 230° 230° 9 kt METAR LFAT 160030Z AUTO 23009KT 190V260 9999 BKN017/// BKN022/// BKN049/// ///TCU 14/11 Q1004
02:00
V
14 °C 10 km+ 7.000 ft 210° 210° 9 kt METAR LFAT 160000Z AUTO 21009KT 170V250 9999 SCT017/// BKN070/// OVC080/// //////TCU 14/11 Q1004
01:30
M
14 °C 10 km+ 1.500 ft 220° 220° 10 kt METAR LFAT 152330Z AUTO 22010KT 190V250 9999 BKN015/// BKN040/// BKN066/// 14/12 Q1004
01:00
M
14 °C 10 km+ 1.500 ft 220° 220° 8 kt METAR LFAT 152300Z AUTO 22008KT 190V250 9999 BKN015/// BKN022/// BKN040/// 14/12 Q1005
00:30
M
14 °C 10 km+ 1.700 ft 240° 240° 10 kt METAR LFAT 152230Z AUTO 24010KT 200V270 9999 BKN017/// BKN023/// BKN044/// //////TCU 14/12 Q1005
00:00
M
14 °C 10 km+ 1.500 ft 240° 240° 9 kt METAR LFAT 152200Z AUTO 24009KT 190V270 9999 BKN015/// BKN035/// BKN054/// 14/12 Q1005

15 czerwca 2024

Czas Kod Pogoda Temp. Widoczność Sufit Wiatr METAR/SPECI
23:30
M
13 °C 10 km+ 2.700 ft 230° 230° 9 kt METAR LFAT 152130Z AUTO 23009KT 190V260 9999 SCT015/// BKN027/// BKN070/// ///TCU 13/12 Q1005
23:00
M
13 °C 10 km+ 2.700 ft 220° 220° 11 kt METAR LFAT 152100Z AUTO 22011KT 190V250 9999 RA SCT012/// BKN027/// BKN040/// //////TCU 13/12 Q1005
22:30
V
14 °C 10 km+ 5.400 ft 220° 220° 10 kt METAR LFAT 152030Z AUTO 22010KT 180V250 9999 -RA FEW010/// SCT014/// OVC054/// //////TCU 14/12 Q1005
22:00
M
14 °C 10 km+ 1.700 ft 230° 230° 12 kt METAR LFAT 152000Z AUTO 23012KT 200V260 9999 -RA SCT012/// BKN017/// BKN025/// //////TCU 14/12 Q1004
21:30
M
14 °C 10 km+ 1.600 ft 230° 230° 10 kt METAR LFAT 151930Z AUTO 23010KT 200V260 9999 BKN016/// OVC032/// //////TCU 14/12 Q1004
21:00
M
14 °C 10 km+ 2.700 ft 230° 230° 8 kt METAR LFAT 151900Z AUTO 23008KT 190V270 9999 FEW020/// BKN027/// BKN049/// ///TCU 14/12 Q1004
20:30
M
14 °C 10 km+ 1.700 ft 240° 240° 10 - 22 kt METAR LFAT 151830Z AUTO 24010G22KT 190V270 9999 FEW012/// BKN017/// BKN024/// ///TCU 14/13 Q1004
20:00
M
14 °C 9 km 2.300 ft 200° 200° 10 kt METAR LFAT 151800Z AUTO 20010KT 160V240 9000 -RA FEW014/// BKN023/// BKN033/// //////TCU 14/12 Q1004 TEMPO 4000 SHRA BKN025 BECMG 23015G25KT
19:30
I
15 °C 2,4 km 2.200 ft 230° 230° 12 kt METAR LFAT 151730Z AUTO 23012KT 200V260 9999 2400 +RA SCT016/// BKN022/// BKN030/// //////TCU 15/12 Q1004 TEMPO 4000 SHRA BKN025 BECMG 23015G25KT
19:00
M
16 °C 10 km+ 2.100 ft 240° 240° 15 kt METAR LFAT 151700Z AUTO 24015KT 210V270 9999 BKN021/// BKN034/// OVC088/// 16/10 Q1004 BECMG 23015G25KT
18:30
M
16 °C 10 km+ 2.100 ft 230° 230° 14 kt METAR LFAT 151630Z AUTO 23014KT 200V260 9999 BKN021/// BKN060/// OVC080/// 16/11 Q1004 BECMG 23015G25KT
18:00
M
16 °C 10 km+ 2.300 ft 230° 230° 14 - 27 kt METAR LFAT 151600Z AUTO 23014G27KT 190V260 9999 BKN023/// OVC044/// 16/11 Q1004 TEMPO 3500 SHRA BKN020TCU
17:30
M
15 °C 10 km+ 1.900 ft 230° 230° 16 - 27 kt METAR LFAT 151530Z AUTO 23016G27KT 200V270 9999 BKN019/// BKN024/// BKN032/// 15/11 Q1004 TEMPO 3500 SHRA BKN020TCU
17:00
M
16 °C 10 km+ 1.700 ft 230° 230° 17 kt METAR LFAT 151500Z AUTO 23017KT 180V250 9999 BKN017/// BKN022/// BKN076/// 16/11 Q1004 TEMPO 3500 SHRA BKN020TCU BECMG 24020G35KT
16:30
M
16 °C 10 km+ 2.100 ft 230° 230° 16 - 29 kt METAR LFAT 151430Z AUTO 23016G29KT 180V260 9999 BKN021/// BKN120/// OVC160/// 16/11 Q1004 TEMPO 3500 SHRA BKN020TCU
16:00
M
16 °C 10 km+ 2.000 ft 220° 220° 15 - 26 kt METAR LFAT 151400Z AUTO 22015G26KT 180V260 9999 BKN020/// BKN037/// BKN056/// 16/10 Q1004 TEMPO 3500 SHRA BKN020TCU
15:30
M
15 °C 10 km+ 2.900 ft 230° 230° 16 - 27 kt METAR LFAT 151330Z AUTO 23016G27KT 200V260 9999 -RA SCT019/// BKN029/// BKN048/// ///TCU 15/11 Q1004 TEMPO 3500 SHRA BKN020CB
15:00
V
15 °C 10 km+ 3.100 ft 220° 220° 16 - 27 kt METAR LFAT 151300Z AUTO 22016G27KT 190V250 9999 SCT023/// BKN031/// BKN052/// ///TCU 15/11 Q1004 TEMPO 1500 TSRA BKN020CB
14:30
M
15 °C 10 km+ 3.000 ft 220° 220° 16 - 26 kt METAR LFAT 151230Z AUTO 22016G26KT 190V250 9999 OVC030/// 15/10 Q1004 TEMPO 1500 TSRA BKN020CB
14:00
M
16 °C 10 km+ 2.900 ft 220° 220° 15 - 31 kt METAR LFAT 151200Z AUTO 22015G31KT 190V250 9999 OVC029/// 16/09 Q1003 TEMPO 1500 TSRA BKN020CB
13:30
V
16 °C 10 km+ 3.500 ft 220° 220° 16 - 27 kt METAR LFAT 151130Z AUTO 22016G27KT 180V260 9999 SCT027/// OVC035/// 16/09 Q1003 TEMPO 1500 TSRA BKN020CB
13:00
M
16 °C 10 km+ 2.700 ft 220° 220° 17 kt METAR LFAT 151100Z AUTO 22017KT 190V250 9999 BKN027/// BKN033/// OVC098/// 16/10 Q1004 TEMPO 1500 TSRA BKN020CB BECMG 24020G35KT
12:30
M
15 °C 10 km+ 2.700 ft 220° 220° 16 - 27 kt METAR LFAT 151030Z AUTO 22016G27KT 180V250 9999 BKN027/// OVC032/// 15/10 Q1004 TEMPO 1500 TSRA BKN020CB
12:00
M
15 °C 10 km+ 2.400 ft 230° 230° 13 - 25 kt METAR LFAT 151000Z AUTO 23013G25KT 190V260 9999 OVC024/// 15/09 Q1004 TEMPO 3500 SHRA BKN020TCU BECMG 24020G35KT
11:30
M
14 °C 10 km+ 2.400 ft 220° 220° 14 kt METAR LFAT 150930Z AUTO 22014KT 180V260 9999 OVC024/// 14/09 Q1003 TEMPO 3500 SHRA BKN020TCU BECMG 24020G35KT
11:00
M
14 °C 10 km+ 2.100 ft 220° 220° 15 kt METAR LFAT 150900Z AUTO 22015KT 180V250 9999 BKN021/// BKN026/// BKN036/// 14/10 Q1004 TEMPO 3500 SHRA BKN020TCU BECMG 24020G35KT
10:30
M
14 °C 10 km+ 1.900 ft 220° 220° 14 kt METAR LFAT 150830Z AUTO 22014KT 180V260 9999 BKN019/// BKN043/// OVC062/// 14/10 Q1004 TEMPO 3500 SHRA BKN020TCU BECMG 24020G35KT
10:00
M
14 °C 10 km+ 2.000 ft 220° 220° 14 kt METAR LFAT 150800Z AUTO 22014KT 190V260 9999 BKN020/// BKN031/// OVC042/// 14/10 Q1004 TEMPO 3500 SHRA BKN020TCU BECMG 24020G35KT
09:30
M
13 °C 10 km+ 1.500 ft 230° 230° 16 kt METAR LFAT 150730Z AUTO 23016KT 190V250 9999 -RA BKN015/// BKN020/// BKN027/// 13/10 Q1003 TEMPO 3500 SHRA BKN020TCU BECMG 24020G35KT
09:00
M
13 °C 10 km+ 2.900 ft 250° 250° 14 kt METAR LFAT 150700Z AUTO 25014KT 220V280 9999 SCT021/// BKN029/// BKN047/// 13/09 Q1003 TEMPO 3500 SHRA BKN020TCU BECMG 24020G35KT
08:30
M
14 °C 10 km+ 2.800 ft 250° 250° 14 kt METAR LFAT 150630Z AUTO 25014KT 9999 BKN028/// BKN035/// BKN047/// 14/09 Q1003 TEMPO 3500 SHRA BKN020TCU BECMG 24020G35KT
08:00
M
14 °C 10 km+ 2.700 ft 250° 250° 14 - 30 kt METAR LFAT 150600Z AUTO 25014G30KT 220V290 9999 BKN027/// BKN033/// //////TCU 14/08 Q1003 TEMPO 3500 SHRA
07:30
M
14 °C 10 km+ 3.000 ft 250° 250° 13 - 27 kt METAR LFAT 150530Z AUTO 25013G27KT 9999 SCT024/// BKN030/// BKN036/// //////TCU 14/09 Q1002
07:00
M
13 °C 10 km+ 2.900 ft 250° 250° 14 kt METAR LFAT 150500Z AUTO 25014KT 220V280 9999 SCT023/// BKN029/// BKN041/// ///TCU 13/09 Q1002
06:30
M
13 °C 10 km+ 2.600 ft 250° 250° 15 - 26 kt METAR LFAT 150430Z AUTO 25015G26KT 220V310 9999 BKN026/// BKN036/// BKN054/// 13/09 Q1002
06:00
M
13 °C 10 km+ 2.300 ft 250° 250° 16 kt METAR LFAT 150400Z AUTO 25016KT 9999 BKN023/// BKN043/// BKN056/// 13/09 Q1001
05:30
M
13 °C 10 km+ 2.400 ft 260° 260° 11 kt METAR LFAT 150330Z AUTO 26011KT 220V290 9999 BKN024/// BKN030/// BKN046/// //////TCU 13/09 Q1001
05:00
V
13 °C 10 km+ 4.200 ft 260° 260° 12 kt METAR LFAT 150300Z AUTO 26012KT 220V300 9999 SCT023/// BKN042/// BKN054/// //////TCU 13/09 Q1001
04:30
M
12 °C 10 km+ 2.100 ft 270° 270° 13 kt METAR LFAT 150230Z AUTO 27013KT 9999 -RA BKN021/// BKN042/// BKN048/// //////TCU 12/09 Q1001
04:00
M
11 °C 9 km 2.300 ft 260° 260° 11 kt METAR LFAT 150200Z AUTO 26011KT 230V290 9000 -RA FEW011/// BKN023/// BKN042/// //////TCU 11/10 Q1001
03:30
M
12 °C 8 km 2.400 ft 220° 220° 5 kt METAR LFAT 150130Z AUTO 22005KT 140V300 8000 -RA FEW014/// SCT019/// BKN024/// ///TCU 12/10 Q1000
03:00
V
13 °C 10 km+ 5.600 ft 250° 250° 10 kt METAR LFAT 150100Z AUTO 25010KT 220V280 9999 -RA SCT016/// SCT044/// BKN056/// //////CB 13/10 Q1000
02:30
V
13 °C 10 km+ 4.400 ft 240° 240° 12 kt METAR LFAT 150030Z AUTO 24012KT 210V280 9999 -RA FEW021/// BKN044/// BKN060/// ///TCU 13/10 Q1000
02:00
M
13 °C 10 km+ 1.900 ft 180° 180° 6 kt METAR LFAT 150000Z AUTO 18006KT 150V220 9999 BKN019/// OVC033/// //////CB 13/12 Q1000
01:30
M
13 °C 10 km+ 1.600 ft 170° 170° 6 kt METAR LFAT 142330Z AUTO 17006KT 9999 BKN016/// BKN035/// BKN054/// 13/12 Q1001
01:00
V
13 °C 10 km+ 6.600 ft 200° 200° 6 kt METAR LFAT 142300Z AUTO 20006KT 160V220 9999 FEW011/// BKN066/// BKN082/// ///TCU 13/12 Q1001
00:30
V
13 °C 10 km+ 7.200 ft 220° 220° 8 kt METAR LFAT 142230Z AUTO 22008KT 190V250 9999 -RA FEW049/// SCT056/// OVC072/// //////TCU 13/11 Q1001
00:00
V
14 °C 10 km+ 4.700 ft 240° 240° 9 kt METAR LFAT 142200Z AUTO 24009KT 210V280 9999 FEW015/// BKN047/// OVC060/// //////TCU 14/11 Q1001

14 czerwca 2024

Czas Kod Pogoda Temp. Widoczność Sufit Wiatr METAR/SPECI
23:30
V
14 °C 10 km+ 6.400 ft 190° 190° 3 kt METAR LFAT 142130Z AUTO 19003KT 140V250 9999 -RA SCT020/// SCT027/// BKN064/// 14/13 Q1001
23:00
M
13 °C 10 km+ 2.300 ft 140° 140° 4 kt METAR LFAT 142100Z AUTO 14004KT 9999 BKN023/// BKN031/// OVC084/// 13/13 Q1002
22:30
V
13 °C 10 km+ 11.000 ft 140° 140° 4 kt METAR LFAT 142030Z AUTO 14004KT 9999 -RA FEW022/// BKN110/// 13/13 Q1002
22:00
V
14 °C 10 km+ 9.000 ft 140° 140° 4 kt METAR LFAT 142000Z AUTO 14004KT 9999 FEW018/// OVC090/// 14/12 Q1002
21:30
V
14 °C 10 km+ - 150° 150° 5 kt METAR LFAT 141930Z AUTO 15005KT 130V190 9999 -RA NCD 14/12 Q1002
21:00
V
14 °C 10 km+ 7.400 ft 180° 180° 4 kt METAR LFAT 141900Z AUTO 18004KT 150V210 9999 -RA SCT020/// SCT056/// BKN074/// 14/11 Q1002 TEMPO 18015G25KT 2000 SHRA BKN008 BKN012CB
20:30
V
15 °C 10 km+ - 190° 190° 4 kt METAR LFAT 141830Z AUTO 19004KT 150V240 9999 NCD 15/12 Q1003 TEMPO 18015G25KT 2000 SHRA BKN008 BKN012CB
20:00
V
15 °C 10 km+ 7.400 ft 180° 180° 4 kt METAR LFAT 141800Z AUTO 18004KT 150V230 9999 FEW020/// BKN074/// OVC094/// 15/11 Q1003 TEMPO 18015G25KT 2000 SHRA BKN008 BKN012CB
19:30
V
15 °C 10 km+ 7.600 ft 190° 190° 4 kt METAR LFAT 141730Z AUTO 19004KT 140V230 9999 FEW025/// BKN076/// OVC098/// 15/12 Q1003 TEMPO 18015G25KT 2000 SHRA BKN008 BKN012CB
19:00
V
15 °C 10 km+ 3.300 ft 210° 210° 5 kt METAR LFAT 141700Z AUTO 21005KT 170V240 9999 -RA FEW019/// BKN033/// BKN044/// 15/12 Q1003 TEMPO 4000 -SHRA SCT020CB BKN050
18:30
V
16 °C 10 km+ 5.600 ft 230° 230° 8 kt METAR LFAT 141630Z AUTO 23008KT 200V270 9999 FEW034/// SCT047/// BKN056/// 16/11 Q1003 TEMPO 4000 SHRA BKN020CB
18:00
V
16 °C 10 km+ 11.000 ft 220° 220° 8 kt METAR LFAT 141600Z AUTO 22008KT 190V260 9999 FEW015/// SCT048/// OVC110/// 16/11 Q1003 TEMPO 1500 TSRA BKN020CB
17:30
V
16 °C 10 km+ - 230° 230° 6 kt METAR LFAT 141530Z AUTO 23006KT 190V260 CAVOK 16/13 Q1004 TEMPO 1500 TSRA BKN020CB
17:00
V
16 °C 10 km+ 7.000 ft 240° 240° 10 kt METAR LFAT 141500Z AUTO 24010KT 210V280 9999 FEW034/// BKN070/// OVC080/// //////TCU 16/12 Q1004 TEMPO 1500 TSRA BKN020CB
16:30
V
16 °C 10 km+ 4.800 ft 240° 240° 10 kt METAR LFAT 141430Z AUTO 24010KT 9999 FEW023/// BKN048/// OVC064/// ///CB 16/11 Q1004 TEMPO 4000 SHRA
16:00
V
18 °C 9 km 6.200 ft 230° 230° 10 kt METAR LFAT 141400Z AUTO 23010KT 180V280 9000 FEW022 SCT049 BKN062 18/11 Q1004 TEMPO 4000 SHRA BKN020CB
15:30
V
18 °C 10 km+ - 230° 230° 10 kt METAR LFAT 141330Z AUTO 23010KT 190V280 9999 FEW023 SCT084 18/12 Q1004 TEMPO 4000 SHRA BKN020CB
15:00
V
18 °C 10 km+ - 240° 240° 11 kt METAR LFAT 141300Z AUTO 24011KT 210V280 CAVOK 18/10 Q1005 TEMPO 4000 SHRA BKN020CB
14:30
V
17 °C 10 km+ 8.400 ft 230° 230° 11 kt METAR LFAT 141230Z AUTO 23011KT 200V260 9999 FEW022 BKN084 17/11 Q1005 TEMPO 4000 SHRA BKN020CB
14:00
V
17 °C 10 km+ 3.300 ft 240° 240° 10 kt METAR LFAT 141200Z AUTO 24010KT 220V290 9999 BKN033 BKN044 BKN064 17/12 Q1005 TEMPO 4000 SHRA BKN020CB
13:30
V
17 °C 10 km+ 4.800 ft 230° 230° 8 kt METAR LFAT 141130Z AUTO 23008KT 200V280 9999 FEW036 BKN048 BKN054 17/11 Q1005 TEMPO 4000 SHRA BKN020CB
13:00
V
16 °C 8 km 5.200 ft 230° 230° 13 kt METAR LFAT 141100Z AUTO 23013KT 200V260 8000 FEW021 OVC052 16/11 Q1005 TEMPO 3000 RADZ OVC009
12:30
V
16 °C 8 km 5.400 ft 240° 240° 13 kt METAR LFAT 141030Z AUTO 24013KT 210V270 8000 FEW018 OVC054 16/11 Q1005 TEMPO 3000 RADZ OVC009
12:00
V
16 °C 8 km 4.800 ft 240° 240° 12 kt METAR LFAT 141000Z AUTO 24012KT 210V270 8000 OVC048 16/11 Q1005 TEMPO 3000 RADZ OVC009
11:30
M
15 °C 8 km 1.600 ft 250° 250° 10 kt METAR LFAT 140930Z AUTO 25010KT 220V280 8000 FEW009 BKN016 BKN025 15/12 Q1005 TEMPO 3000 RADZ OVC009
11:00
M
14 °C 9 km 1.200 ft 220° 220° 11 kt METAR LFAT 140900Z AUTO 22011KT 190V260 9000 -DZ SCT008 BKN012 BKN018 14/13 Q1005 TEMPO 3000 RADZ OVC009
10:30
M
15 °C 10 km+ 1.100 ft 220° 220° 11 kt METAR LFAT 140830Z AUTO 22011KT 180V240 9999 -RA BKN011 BKN029 OVC034 15/13 Q1005 TEMPO 3000 RADZ OVC009
10:00
M
15 °C 10 km+ 1.200 ft 210° 210° 9 kt METAR LFAT 140800Z AUTO 21009KT 170V250 9999 OVC012 15/12 Q1005 TEMPO 3000 RADZ OVC009
09:30
M
14 °C 10 km+ 1.200 ft 210° 210° 8 kt METAR LFAT 140730Z AUTO 21008KT 160V240 9999 OVC012 14/13 Q1005 TEMPO 3000 RADZ OVC009
09:00
I
13 °C 10 km+ 700 ft 210° 210° 7 kt METAR LFAT 140700Z AUTO 21007KT 170V250 9999 OVC007 13/13 Q1005 TEMPO 3000 RADZ
08:30
M
13 °C 10 km+ 1.000 ft 230° 230° 11 kt METAR LFAT 140630Z AUTO 23011KT 180V250 9999 OVC010 13/12 Q1005 TEMPO 3000 RADZ
08:00
M
13 °C 10 km+ 1.000 ft 190° 190° 7 kt METAR LFAT 140600Z AUTO 19007KT 130V240 9999 OVC010 13/12 Q1005 TEMPO 3000 RADZ
07:30
M
12 °C 10 km+ 1.000 ft 160° 160° 5 kt METAR LFAT 140530Z AUTO 16005KT 9999 OVC010 12/11 Q1005 TEMPO 3000 RADZ
07:00
M
12 °C 10 km+ 1.200 ft 160° 160° 6 kt METAR LFAT 140500Z AUTO 16006KT 130V190 9999 OVC012 12/10 Q1005
06:30
M
11 °C 10 km+ 1.200 ft 170° 170° 7 kt METAR LFAT 140430Z AUTO 17007KT 130V210 9999 -DZ OVC012 11/10 Q1005
06:00
M
11 °C 10 km+ 1.000 ft 170° 170° 7 kt METAR LFAT 140400Z AUTO 17007KT 140V210 9999 -RADZ OVC010 11/10 Q1005
05:30
M
11 °C 10 km+ 1.100 ft 180° 180° 6 kt METAR LFAT 140330Z AUTO 18006KT 150V210 9999 -DZ OVC011 11/10 Q1005
05:00
M
11 °C 5 km 1.300 ft 180° 180° 7 kt METAR LFAT 140300Z AUTO 18007KT 150V220 5000 +DZ BR OVC013 11/10 Q1006
04:30
M
11 °C 5 km 1.500 ft 170° 170° 7 kt METAR LFAT 140230Z AUTO 17007KT 140V210 5000 DZ BR OVC015 11/10 Q1006
04:00
M
12 °C 6 km 1.700 ft 170° 170° 6 kt METAR LFAT 140200Z AUTO 17006KT 130V200 6000 -RA OVC017 12/09 Q1006
03:30
M
12 °C 10 km+ 1.800 ft 180° 180° 8 kt METAR LFAT 140130Z AUTO 18008KT 150V220 9999 -RA OVC018 12/09 Q1006
03:00
M
13 °C 10 km+ 2.200 ft 180° 180° 7 kt METAR LFAT 140100Z AUTO 18007KT 120V210 9999 OVC022 13/09 Q1007
02:30
M
12 °C 10 km+ 2.300 ft 180° 180° 8 kt METAR LFAT 140030Z AUTO 18008KT 120V220 9999 OVC023 12/09 Q1007
02:00
V
13 °C 10 km+ 3.300 ft 190° 190° 10 kt METAR LFAT 140000Z AUTO 19010KT 160V230 9999 SCT026 OVC033 13/09 Q1008
01:30
V
13 °C 10 km+ 3.800 ft 170° 170° 7 kt METAR LFAT 132330Z AUTO 17007KT 130V200 9999 FEW025 OVC038 13/10 Q1008
01:00
V
13 °C 10 km+ 4.800 ft 180° 180° 6 kt METAR LFAT 132300Z AUTO 18006KT 140V210 9999 FEW032 SCT040 BKN048 13/11 Q1009
00:30
V
13 °C 10 km+ - 160° 160° 6 kt METAR LFAT 132230Z AUTO 16006KT 9999 -RADZ ///TCU 13/11 Q1009
00:00
V
13 °C 10 km+ - 140° 140° 6 kt METAR LFAT 132200Z AUTO 14006KT 9999 //////TCU 13/12 Q1009

13 czerwca 2024

Czas Kod Pogoda Temp. Widoczność Sufit Wiatr METAR/SPECI
23:30
V
13 °C 10 km+ - 160° 160° 5 kt METAR LFAT 132130Z AUTO 16005KT 9999 -RA ///TCU 13/11 Q1010
23:00
V
13 °C 10 km+ 6.200 ft Var Var 3 kt METAR LFAT 132100Z AUTO VRB03KT 9999 -RA FEW035 OVC062 13/12 Q1010
22:30
V
14 °C 10 km+ 5.400 ft 250° 250° 6 kt METAR LFAT 132030Z AUTO 25006KT 220V280 9999 -RA FEW011 SCT045 BKN054 14/12 Q1011
22:00
V
14 °C 10 km+ 5.800 ft 240° 240° 7 kt METAR LFAT 132000Z AUTO 24007KT 200V280 9999 -RA FEW025 SCT047 BKN058 14/11 Q1011
21:30
V
15 °C 10 km+ - 240° 240° 8 kt METAR LFAT 131930Z AUTO 24008KT 200V290 9999 -RA //////TCU 15/11 Q1011
21:00
V
16 °C 10 km+ 4.800 ft 240° 240° 9 kt METAR LFAT 131900Z AUTO 24009KT 210V270 9999 -RA FEW034 BKN048 BKN058 16/10 Q1011
20:30
V
17 °C 10 km+ - 170° 170° 4 kt METAR LFAT 131830Z AUTO 17004KT 140V210 CAVOK 17/08 Q1010
20:00
V
18 °C 10 km+ - 170° 170° 4 kt METAR LFAT 131800Z AUTO 17004KT 140V200 CAVOK 18/07 Q1011 TEMPO 23015G25KT 4500 -RA BKN011 OVC060
19:30
V
18 °C 10 km+ - 190° 190° 5 kt METAR LFAT 131730Z AUTO 19005KT 160V220 CAVOK 18/07 Q1011 TEMPO 23015G25KT 4500 -RA BKN011 OVC060
19:00
V
18 °C 10 km+ - 170° 170° 5 kt METAR LFAT 131700Z AUTO 17005KT 130V220 CAVOK 18/07 Q1011 NOSIG
18:00
V
18 °C 10 km+ - 170° 170° 6 kt METAR LFAT 131600Z AUTO 17006KT 120V220 CAVOK 18/07 Q1012 NOSIG
17:30
V
17 °C 10 km+ - 200° 200° 6 kt METAR LFAT 131530Z AUTO 20006KT 170V240 CAVOK 17/06 Q1013 NOSIG
17:00
V
17 °C 10 km+ - 210° 210° 7 kt METAR LFAT 131500Z AUTO 21007KT 170V240 CAVOK 17/06 Q1013 NOSIG
16:30
V
17 °C 10 km+ - 220° 220° 6 kt METAR LFAT 131430Z AUTO 22006KT 180V260 CAVOK 17/07 Q1014 NOSIG
16:00
V
17 °C 10 km+ - 240° 240° 8 kt METAR LFAT 131400Z AUTO 24008KT 200V270 CAVOK 17/06 Q1014 NOSIG
15:30
V
17 °C 10 km+ - 240° 240° 8 kt METAR LFAT 131330Z AUTO 24008KT 210V280 CAVOK 17/05 Q1015 NOSIG
15:00
V
16 °C 10 km+ - 230° 230° 9 kt METAR LFAT 131300Z AUTO 23009KT 180V270 CAVOK 16/05 Q1015 NOSIG
14:30
V
16 °C 10 km+ - 240° 240° 10 kt METAR LFAT 131230Z AUTO 24010KT 210V280 CAVOK 16/06 Q1015 NOSIG
14:00
V
17 °C 10 km+ - 230° 230° 9 kt METAR LFAT 131200Z AUTO 23009KT 190V280 CAVOK 17/05 Q1016 NOSIG
13:30
V
16 °C 10 km+ - 230° 230° 9 kt METAR LFAT 131130Z AUTO 23009KT 170V270 CAVOK 16/07 Q1016 NOSIG
13:00
V
16 °C 10 km+ 21.000 ft 240° 240° 9 kt METAR LFAT 131100Z AUTO 24009KT 200V290 9999 FEW031 BKN210 OVC230 16/06 Q1016 NOSIG
12:30
V
15 °C 10 km+ 22.000 ft 240° 240° 10 kt METAR LFAT 131030Z AUTO 24010KT 200V280 9999 FEW030 BKN220 15/07 Q1016 NOSIG
12:00
V
16 °C 10 km+ - 250° 250° 10 kt METAR LFAT 131000Z AUTO 25010KT 210V280 9999 FEW026 16/09 Q1017 NOSIG
11:30
V
15 °C 10 km+ - 250° 250° 9 kt METAR LFAT 130930Z AUTO 25009KT 220V290 9999 FEW028 15/08 Q1017 NOSIG
11:00
V
15 °C 10 km+ - 230° 230° 10 kt METAR LFAT 130900Z AUTO 23010KT 190V290 9999 FEW024 SCT036 15/08 Q1017 NOSIG
10:30
V
15 °C 10 km+ 23.000 ft 240° 240° 10 kt METAR LFAT 130830Z AUTO 24010KT 190V280 9999 FEW025 SCT035 BKN230 15/07 Q1017 NOSIG
10:00
V
15 °C 10 km+ 4.800 ft 230° 230° 9 kt METAR LFAT 130800Z AUTO 23009KT 180V290 9999 SCT024 BKN048 15/09 Q1017 NOSIG
09:30
V
14 °C 10 km+ 4.500 ft 230° 230° 10 kt METAR LFAT 130730Z AUTO 23010KT 200V260 9999 SCT025 SCT030 BKN045 14/08 Q1017 NOSIG
09:00
V
14 °C 10 km+ 5.000 ft 240° 240° 8 kt METAR LFAT 130700Z AUTO 24008KT 200V290 9999 SCT026 SCT037 BKN050 14/08 Q1017 NOSIG
08:30
V
13 °C 10 km+ 3.400 ft Var Var 3 kt METAR LFAT 130630Z AUTO VRB03KT 9999 SCT025 BKN034 BKN052 13/09 Q1017 NOSIG
08:00
M
12 °C 10 km+ 2.200 ft 130° 130° 5 kt METAR LFAT 130600Z AUTO 13005KT 9999 BKN022 BKN030 12/10 Q1017 BECMG 22010KT
Zgłoś zmianę